createdAt,value
2017-10-19T00:01:58.116Z,12.10
2017-10-19T00:04:25.587Z,12.10
2017-10-19T00:06:53.843Z,12.20
2017-10-19T00:09:21.311Z,12.20
2017-10-19T00:11:49.539Z,12.10
2017-10-19T00:14:17.010Z,12.10
2017-10-19T00:16:44.495Z,12.10
2017-10-19T00:19:11.972Z,12.10
2017-10-19T00:21:40.204Z,12.00
2017-10-19T00:24:07.680Z,12.00
2017-10-19T00:26:35.135Z,12.10
2017-10-19T00:29:02.595Z,12.10
2017-10-19T00:31:30.083Z,12.20
2017-10-19T00:33:57.552Z,12.10
2017-10-19T00:36:25.010Z,12.10
2017-10-19T00:38:52.491Z,12.10
2017-10-19T00:41:19.967Z,12.00
2017-10-19T00:43:48.207Z,11.90
2017-10-19T00:46:15.679Z,11.90
2017-10-19T00:48:43.150Z,11.80
2017-10-19T00:51:10.627Z,11.90
2017-10-19T00:53:38.856Z,11.80
2017-10-19T00:56:06.322Z,11.80
2017-10-19T00:58:33.794Z,11.90
2017-10-19T01:01:02.024Z,11.90
2017-10-19T01:03:29.496Z,11.90
2017-10-19T01:05:56.954Z,11.90
2017-10-19T01:08:24.435Z,11.80
2017-10-19T01:10:52.684Z,11.70
2017-10-19T01:13:20.143Z,11.70
2017-10-19T01:15:47.604Z,11.70
2017-10-19T01:18:15.083Z,11.70
2017-10-19T01:20:43.321Z,11.60
2017-10-19T01:23:10.795Z,11.60
2017-10-19T01:25:38.259Z,11.70
2017-10-19T01:28:05.747Z,11.70
2017-10-19T01:30:33.982Z,11.80
2017-10-19T01:33:01.443Z,11.70
2017-10-19T01:35:28.923Z,11.70
2017-10-19T01:37:56.386Z,11.70
2017-10-19T01:40:23.867Z,11.70
2017-10-19T01:42:51.327Z,11.70
2017-10-19T01:45:18.816Z,11.70
2017-10-19T01:47:46.275Z,11.70
2017-10-19T01:50:13.751Z,11.70
2017-10-19T01:52:41.227Z,11.60
2017-10-19T01:55:08.692Z,11.60
2017-10-19T01:57:36.937Z,11.50
2017-10-19T02:00:04.422Z,11.50
2017-10-19T02:02:32.734Z,11.50
2017-10-19T02:05:00.291Z,11.50
2017-10-19T02:07:27.766Z,11.50
2017-10-19T02:09:55.238Z,11.50
2017-10-19T02:12:22.714Z,11.50
2017-10-19T02:14:50.183Z,11.60
2017-10-19T02:17:18.431Z,11.60
2017-10-19T02:19:45.890Z,11.60
2017-10-19T02:22:13.371Z,11.60
2017-10-19T02:24:41.595Z,11.70
2017-10-19T02:27:09.061Z,11.70
2017-10-19T02:29:36.544Z,11.70
2017-10-19T02:32:04.012Z,11.70
2017-10-19T02:34:31.463Z,11.70
2017-10-19T02:36:59.711Z,11.60
2017-10-19T02:39:27.187Z,11.60
2017-10-19T02:41:54.674Z,11.60
2017-10-19T02:44:22.139Z,11.60
2017-10-19T02:46:49.597Z,11.60
2017-10-19T02:49:17.087Z,11.60
2017-10-19T02:51:44.543Z,11.50
2017-10-19T02:54:12.003Z,11.50
2017-10-19T02:56:39.484Z,11.50
2017-10-19T02:59:06.942Z,11.50
2017-10-19T03:01:34.437Z,11.50
2017-10-19T03:04:02.655Z,11.50
2017-10-19T03:06:30.111Z,11.50
2017-10-19T03:08:57.590Z,11.50
2017-10-19T03:11:25.824Z,11.40
2017-10-19T03:13:53.307Z,11.40
2017-10-19T03:16:20.764Z,11.40
2017-10-19T03:18:48.220Z,11.50
2017-10-19T03:21:15.695Z,11.50
2017-10-19T03:23:43.940Z,11.50
2017-10-19T03:26:11.420Z,11.50
2017-10-19T03:28:38.882Z,11.50
2017-10-19T03:31:07.116Z,11.40
2017-10-19T03:33:34.590Z,11.40
2017-10-19T03:36:02.064Z,11.40
2017-10-19T03:38:29.539Z,11.30
2017-10-19T03:40:57.779Z,11.10
2017-10-19T03:43:25.243Z,11.10
2017-10-19T03:45:52.727Z,11.00
2017-10-19T03:48:20.962Z,11.00
2017-10-19T03:50:48.415Z,11.00
2017-10-19T03:53:15.894Z,11.10
2017-10-19T03:55:43.347Z,11.10
2017-10-19T03:58:10.830Z,11.20
2017-10-19T04:00:39.048Z,11.20
2017-10-19T04:03:06.521Z,11.20
2017-10-19T04:05:33.986Z,11.20
2017-10-19T04:08:01.468Z,11.20
2017-10-19T04:10:29.704Z,11.10
2017-10-19T04:12:57.183Z,11.10
2017-10-19T04:15:24.646Z,11.10
2017-10-19T04:17:52.875Z,11.00
2017-10-19T04:20:20.360Z,11.00
2017-10-19T04:22:48.599Z,11.00
2017-10-19T04:25:16.083Z,11.00
2017-10-19T04:27:43.555Z,11.10
2017-10-19T04:30:11.038Z,11.20
2017-10-19T04:32:39.277Z,11.20
2017-10-19T04:35:07.519Z,11.20
2017-10-19T04:37:35.001Z,11.20
2017-10-19T04:40:02.463Z,11.10
2017-10-19T04:42:30.704Z,11.10
2017-10-19T04:44:58.178Z,11.10
2017-10-19T04:47:25.671Z,11.10
2017-10-19T04:49:53.903Z,11.10
2017-10-19T04:52:21.386Z,11.10
2017-10-19T04:54:48.847Z,11.10
2017-10-19T04:57:16.331Z,11.10
2017-10-19T04:59:44.563Z,11.30
2017-10-19T05:02:12.042Z,11.20
2017-10-19T05:04:39.503Z,11.20
2017-10-19T05:07:07.747Z,11.30
2017-10-19T05:09:35.231Z,11.20
2017-10-19T05:12:02.699Z,11.30
2017-10-19T05:14:30.930Z,11.30
2017-10-19T05:16:58.411Z,11.30
2017-10-19T05:19:25.892Z,11.20
2017-10-19T05:21:54.127Z,11.30
2017-10-19T05:24:21.616Z,11.30
2017-10-19T05:26:49.095Z,11.40
2017-10-19T05:29:16.570Z,11.30
2017-10-19T05:31:44.125Z,11.30
2017-10-19T05:34:11.591Z,11.20
2017-10-19T05:36:39.080Z,11.20
2017-10-19T05:39:06.553Z,11.20
2017-10-19T05:41:34.779Z,11.20
2017-10-19T05:44:02.265Z,11.20
2017-10-19T05:46:29.740Z,11.20
2017-10-19T05:48:57.987Z,11.20
2017-10-19T05:51:25.471Z,11.20
2017-10-19T05:53:53.712Z,11.20
2017-10-19T05:56:22.832Z,11.10
2017-10-19T05:58:51.055Z,11.10
2017-10-19T06:01:18.530Z,11.10
2017-10-19T06:03:46.015Z,11.10
2017-10-19T06:06:13.487Z,11.10
2017-10-19T06:08:41.730Z,11.10
2017-10-19T06:11:09.192Z,11.10
2017-10-19T06:13:36.674Z,11.10
2017-10-19T06:16:04.926Z,11.00
2017-10-19T06:18:32.400Z,11.00
2017-10-19T06:20:59.882Z,11.10
2017-10-19T06:23:27.351Z,11.10
2017-10-19T06:25:54.828Z,11.10
2017-10-19T06:28:22.299Z,11.10
2017-10-19T06:30:49.767Z,11.10
2017-10-19T06:33:17.235Z,11.20
2017-10-19T06:35:44.707Z,11.30
2017-10-19T06:38:12.965Z,11.30
2017-10-19T06:40:40.460Z,11.30
2017-10-19T06:43:07.910Z,11.30
2017-10-19T06:45:35.387Z,11.30
2017-10-19T06:48:02.946Z,11.40
2017-10-19T06:50:30.427Z,11.50
2017-10-19T06:52:57.892Z,11.60
2017-10-19T06:55:25.355Z,11.70
2017-10-19T06:57:54.344Z,11.90
2017-10-19T07:00:21.806Z,11.90
2017-10-19T07:02:49.288Z,12.00
2017-10-19T07:05:17.526Z,12.30
2017-10-19T07:07:44.987Z,12.30
2017-10-19T07:10:12.463Z,12.40
2017-10-19T07:12:39.933Z,12.40
2017-10-19T07:15:08.175Z,12.50
2017-10-19T07:17:35.644Z,12.60
2017-10-19T07:20:03.103Z,12.60
2017-10-19T07:22:30.587Z,12.70
2017-10-19T07:24:58.830Z,12.80
2017-10-19T07:27:26.319Z,12.80
2017-10-19T07:29:53.783Z,12.80
2017-10-19T07:32:21.268Z,12.90
2017-10-19T07:34:48.746Z,12.90
2017-10-19T07:37:16.204Z,13.00
2017-10-19T07:39:43.688Z,13.10
2017-10-19T07:42:11.916Z,13.20
2017-10-19T07:44:39.396Z,13.20
2017-10-19T07:47:08.371Z,13.30
2017-10-19T07:49:35.828Z,13.30
2017-10-19T07:52:03.299Z,13.30
2017-10-19T07:54:30.779Z,13.30
2017-10-19T07:56:59.024Z,13.20
2017-10-19T07:59:26.483Z,13.20
2017-10-19T08:01:54.744Z,13.30
2017-10-19T08:04:22.203Z,13.30
2017-10-19T08:06:49.663Z,13.40
2017-10-19T08:09:17.143Z,13.50
2017-10-19T08:11:44.608Z,13.50
2017-10-19T08:14:12.831Z,13.80
2017-10-19T08:16:40.308Z,13.80
2017-10-19T08:19:07.788Z,13.90
2017-10-19T08:21:35.251Z,14.20
2017-10-19T08:24:03.484Z,14.60
2017-10-19T08:26:30.958Z,14.60
2017-10-19T08:28:58.427Z,14.70
2017-10-19T08:31:25.918Z,14.70
2017-10-19T08:33:54.139Z,14.70
2017-10-19T08:36:21.620Z,14.70
2017-10-19T08:38:49.103Z,14.70
2017-10-19T08:41:16.572Z,14.80
2017-10-19T08:43:44.038Z,14.90
2017-10-19T08:46:11.509Z,15.00
2017-10-19T08:48:38.980Z,15.00
2017-10-19T08:51:06.454Z,15.10
2017-10-19T08:53:33.922Z,15.30
2017-10-19T08:56:01.376Z,15.50
2017-10-19T08:58:28.852Z,15.70
2017-10-19T09:00:57.082Z,15.50
2017-10-19T09:03:24.560Z,15.50
2017-10-19T09:05:52.032Z,15.30
2017-10-19T09:08:20.279Z,15.50
2017-10-19T09:10:47.746Z,15.40
2017-10-19T09:13:15.210Z,15.70
2017-10-19T09:15:43.454Z,16.00
2017-10-19T09:18:10.919Z,16.00
2017-10-19T09:20:39.915Z,16.30
2017-10-19T09:23:07.381Z,16.30
2017-10-19T09:25:34.845Z,16.60
2017-10-19T09:28:02.319Z,16.80
2017-10-19T09:30:29.782Z,16.90
2017-10-19T09:32:57.268Z,17.00
2017-10-19T09:35:24.738Z,17.00
2017-10-19T09:37:52.224Z,17.20
2017-10-19T09:40:19.698Z,17.50
2017-10-19T09:42:47.932Z,18.30
2017-10-19T09:45:15.420Z,18.30
2017-10-19T09:47:43.643Z,20.00
2017-10-19T09:50:11.123Z,19.90
2017-10-19T09:52:38.584Z,20.40
2017-10-19T09:55:06.056Z,20.80
2017-10-19T09:57:33.533Z,20.90
2017-10-19T10:00:01.767Z,21.00
2017-10-19T10:02:29.251Z,20.90
2017-10-19T10:04:57.487Z,21.40
2017-10-19T10:07:24.959Z,21.30
2017-10-19T10:09:52.439Z,21.70
2017-10-19T10:12:20.668Z,21.90
2017-10-19T10:14:48.155Z,21.90
2017-10-19T10:17:15.620Z,22.20
2017-10-19T10:19:43.103Z,22.30
2017-10-19T10:22:10.564Z,22.40
2017-10-19T10:24:38.039Z,22.50
2017-10-19T10:27:05.507Z,23.00
2017-10-19T10:29:33.003Z,22.80
2017-10-19T10:32:00.458Z,22.30
2017-10-19T10:34:27.920Z,23.00
2017-10-19T10:36:56.160Z,22.70
2017-10-19T10:39:23.624Z,22.70
2017-10-19T10:41:51.103Z,22.90
2017-10-19T10:44:18.571Z,22.50
2017-10-19T10:46:46.805Z,22.70
2017-10-19T10:49:14.282Z,22.60
2017-10-19T10:51:41.743Z,22.90
2017-10-19T10:54:09.224Z,23.10
2017-10-19T10:56:37.470Z,24.30
2017-10-19T10:59:06.450Z,24.20
2017-10-19T11:01:33.920Z,24.20
2017-10-19T11:04:01.380Z,24.20
2017-10-19T11:06:28.868Z,23.60
2017-10-19T11:08:56.386Z,23.30
2017-10-19T11:11:23.859Z,23.50
2017-10-19T11:13:52.107Z,23.70
2017-10-19T11:16:19.595Z,23.70
2017-10-19T11:18:47.822Z,23.20
2017-10-19T11:21:15.303Z,23.20
2017-10-19T11:23:42.796Z,22.90
2017-10-19T11:26:11.031Z,22.60
2017-10-19T11:28:38.486Z,22.60
2017-10-19T11:31:05.968Z,22.90
2017-10-19T11:33:34.199Z,23.20
2017-10-19T11:36:01.692Z,23.20
2017-10-19T11:38:29.169Z,22.80
2017-10-19T11:40:57.402Z,23.00
2017-10-19T11:43:24.884Z,23.10
2017-10-19T11:45:53.136Z,23.40
2017-10-19T11:48:20.619Z,23.40
2017-10-19T11:50:48.864Z,23.70
2017-10-19T11:53:16.351Z,23.70
2017-10-19T11:55:44.590Z,22.50
2017-10-19T11:58:12.069Z,22.50
2017-10-19T12:00:39.546Z,22.00
2017-10-19T12:03:07.775Z,22.50
2017-10-19T12:05:35.244Z,22.50
2017-10-19T12:08:02.716Z,22.80
2017-10-19T12:10:30.180Z,22.90
2017-10-19T12:12:58.432Z,22.00
2017-10-19T12:15:25.911Z,22.00
2017-10-19T12:17:54.148Z,22.60
2017-10-19T12:20:21.614Z,22.60
2017-10-19T12:22:49.091Z,22.70
2017-10-19T12:25:16.572Z,22.50
2017-10-19T12:27:44.807Z,22.80
2017-10-19T12:30:12.263Z,22.80
2017-10-19T12:32:39.756Z,22.80
2017-10-19T12:35:08.007Z,22.90
2017-10-19T12:37:35.476Z,22.90
2017-10-19T12:40:03.736Z,22.60
2017-10-19T12:42:31.209Z,22.60
2017-10-19T12:44:59.447Z,22.80
2017-10-19T12:47:26.942Z,22.70
2017-10-19T12:49:55.174Z,22.10
2017-10-19T12:52:22.682Z,22.00
2017-10-19T12:54:50.912Z,22.20
2017-10-19T12:57:18.381Z,22.20
2017-10-19T12:59:45.855Z,22.40
2017-10-19T13:02:14.095Z,22.70
2017-10-19T13:04:41.580Z,22.70
2017-10-19T13:07:09.051Z,22.80
2017-10-19T13:09:37.283Z,22.80
2017-10-19T13:12:04.769Z,22.80
2017-10-19T13:14:32.253Z,23.00
2017-10-19T13:17:00.476Z,22.80
2017-10-19T13:19:27.956Z,22.80
2017-10-19T13:21:55.419Z,22.50
2017-10-19T13:24:22.907Z,22.70
2017-10-19T13:26:50.379Z,22.70
2017-10-19T13:29:17.850Z,22.70
2017-10-19T13:31:45.335Z,22.50
2017-10-19T13:34:12.796Z,22.20
2017-10-19T13:36:40.271Z,22.10
2017-10-19T13:39:08.510Z,22.10
2017-10-19T13:41:35.995Z,22.00
2017-10-19T13:44:04.219Z,21.40
2017-10-19T13:46:31.711Z,21.40
2017-10-19T13:48:59.200Z,21.30
2017-10-19T13:51:26.677Z,21.10
2017-10-19T13:53:54.142Z,21.10
2017-10-19T13:56:21.625Z,21.10
2017-10-19T13:58:49.095Z,21.10
2017-10-19T14:01:16.577Z,21.00
2017-10-19T14:03:44.828Z,20.80
2017-10-19T14:06:12.312Z,20.80
2017-10-19T14:08:40.568Z,20.80
2017-10-19T14:11:08.033Z,20.80
2017-10-19T14:13:36.300Z,20.70
2017-10-19T14:16:03.776Z,20.70
2017-10-19T14:18:32.000Z,20.60
2017-10-19T14:20:59.490Z,20.50
2017-10-19T14:23:27.734Z,20.60
2017-10-19T14:25:55.220Z,20.60
2017-10-19T14:28:23.464Z,20.60
2017-10-19T14:30:50.940Z,20.60
2017-10-19T14:33:18.427Z,20.50
2017-10-19T14:35:46.650Z,20.60
2017-10-19T14:38:14.132Z,20.60
2017-10-19T14:40:41.595Z,20.50
2017-10-19T14:43:09.083Z,20.40
2017-10-19T14:45:36.554Z,20.30
2017-10-19T14:48:04.031Z,20.20
2017-10-19T14:50:31.503Z,20.20
2017-10-19T14:52:58.995Z,20.20
2017-10-19T14:55:27.214Z,20.20
2017-10-19T14:57:54.699Z,20.10
2017-10-19T15:00:22.174Z,20.20
2017-10-19T15:02:50.448Z,20.20
2017-10-19T15:05:18.673Z,20.20
2017-10-19T15:07:46.143Z,20.20
2017-10-19T15:10:13.637Z,20.20
2017-10-19T15:12:41.868Z,20.10
2017-10-19T15:15:09.339Z,20.10
2017-10-19T15:17:36.807Z,20.00
2017-10-19T15:20:04.291Z,20.00
2017-10-19T15:22:32.536Z,19.90
2017-10-19T15:24:59.995Z,19.90
2017-10-19T15:27:27.488Z,19.80
2017-10-19T15:29:55.720Z,19.70
2017-10-19T15:32:23.199Z,19.70
2017-10-19T15:34:51.420Z,19.60
2017-10-19T15:37:18.906Z,19.60
2017-10-19T15:39:46.375Z,19.50
2017-10-19T15:42:13.851Z,19.50
2017-10-19T15:44:42.100Z,19.30
2017-10-19T15:47:09.566Z,19.30
2017-10-19T15:49:37.828Z,19.20
2017-10-19T15:52:05.298Z,19.20
2017-10-19T15:54:32.759Z,19.30
2017-10-19T15:57:01.025Z,19.20
2017-10-19T15:59:29.254Z,19.10
2017-10-19T16:01:56.911Z,19.10
2017-10-19T16:04:24.370Z,19.00
2017-10-19T16:06:51.871Z,18.90
2017-10-19T16:09:19.327Z,18.90
2017-10-19T16:11:46.785Z,18.80
2017-10-19T16:14:14.263Z,18.80
2017-10-19T16:16:42.488Z,18.70
2017-10-19T16:19:09.949Z,18.70
2017-10-19T16:21:37.412Z,18.70
2017-10-19T16:24:04.907Z,18.70
2017-10-19T16:26:33.147Z,18.60
2017-10-19T16:29:00.618Z,18.60
2017-10-19T16:31:28.154Z,18.50
2017-10-19T16:33:55.640Z,18.40
2017-10-19T16:36:23.138Z,18.40
2017-10-19T16:38:50.617Z,18.30
2017-10-19T16:41:18.088Z,18.30
2017-10-19T16:43:45.587Z,18.30
2017-10-19T16:46:13.845Z,18.10
2017-10-19T16:48:41.316Z,18.20
2017-10-19T16:51:09.553Z,18.00
2017-10-19T16:53:37.039Z,18.00
2017-10-19T16:56:05.277Z,17.90
2017-10-19T16:58:32.776Z,17.90
2017-10-19T17:01:01.017Z,17.90
2017-10-19T17:03:28.516Z,17.90
2017-10-19T17:05:56.760Z,17.80
2017-10-19T17:08:24.223Z,17.80
2017-10-19T17:10:51.843Z,17.80
2017-10-19T17:13:19.316Z,17.90
2017-10-19T17:15:46.790Z,17.90
2017-10-19T17:18:14.254Z,18.00
2017-10-19T17:20:42.585Z,17.90
2017-10-19T17:23:10.070Z,17.90
2017-10-19T17:25:37.547Z,17.70
2017-10-19T17:28:05.803Z,17.50
2017-10-19T17:30:33.280Z,17.50
2017-10-19T17:33:00.752Z,17.60
2017-10-19T17:35:28.975Z,17.80
2017-10-19T17:37:56.461Z,17.70
2017-10-19T17:40:23.937Z,17.80
2017-10-19T17:42:52.195Z,17.80
2017-10-19T17:45:20.442Z,17.80
2017-10-19T17:47:47.923Z,17.80
2017-10-19T17:50:15.391Z,17.70
2017-10-19T17:52:43.615Z,17.70
2017-10-19T17:55:11.096Z,17.70
2017-10-19T17:57:38.587Z,17.70
2017-10-19T18:00:06.841Z,17.60
2017-10-19T18:02:34.300Z,17.60
2017-10-19T18:05:01.790Z,17.60
2017-10-19T18:07:29.276Z,17.50
2017-10-19T18:09:56.742Z,17.50
2017-10-19T18:12:24.232Z,17.50
2017-10-19T18:14:51.704Z,17.50
2017-10-19T18:17:19.931Z,17.50
2017-10-19T18:19:47.443Z,17.50
2017-10-19T18:22:15.671Z,17.50
2017-10-19T18:24:43.135Z,17.40
2017-10-19T18:27:10.619Z,17.40
2017-10-19T18:29:38.868Z,17.40
2017-10-19T18:32:06.347Z,17.30
2017-10-19T18:34:36.752Z,17.40
2017-10-19T18:37:04.215Z,17.40
2017-10-19T18:39:31.698Z,17.40
2017-10-19T18:41:59.939Z,17.30
2017-10-19T18:44:27.407Z,17.30
2017-10-19T18:46:55.660Z,17.30
2017-10-19T18:49:23.135Z,17.30
2017-10-19T18:51:50.610Z,17.30
2017-10-19T18:54:18.856Z,17.60
2017-10-19T18:56:47.866Z,17.60
2017-10-19T18:59:16.132Z,17.70
2017-10-19T19:01:43.595Z,17.60
2017-10-19T19:04:11.062Z,17.60
2017-10-19T19:06:39.310Z,17.60
2017-10-19T19:09:06.799Z,17.60
2017-10-19T19:11:35.049Z,17.70
2017-10-19T19:14:02.566Z,17.70
2017-10-19T19:16:30.040Z,17.80
2017-10-19T19:18:57.540Z,17.80
2017-10-19T19:21:25.778Z,17.70
2017-10-19T19:23:53.292Z,17.70
2017-10-19T19:26:20.776Z,17.70
2017-10-19T19:28:48.241Z,17.70
2017-10-19T19:31:15.732Z,17.70
2017-10-19T19:33:43.962Z,17.60
2017-10-19T19:36:11.439Z,17.60
2017-10-19T19:38:38.931Z,17.50
2017-10-19T19:41:07.184Z,17.40
2017-10-19T19:43:34.666Z,17.40
2017-10-19T19:46:02.900Z,17.30
2017-10-19T19:48:30.396Z,17.30
2017-10-19T19:50:58.623Z,17.20
2017-10-19T19:53:26.101Z,17.20
2017-10-19T19:55:53.577Z,17.10
2017-10-19T19:58:21.819Z,17.00
2017-10-19T20:00:49.300Z,16.90
2017-10-19T20:03:17.543Z,16.90
2017-10-19T20:05:45.012Z,16.90
2017-10-19T20:08:12.507Z,16.90
2017-10-19T20:10:40.756Z,16.80
2017-10-19T20:13:08.243Z,16.70
2017-10-19T20:15:35.716Z,16.70
2017-10-19T20:18:03.176Z,16.60
2017-10-19T20:20:30.663Z,16.50
2017-10-19T20:22:58.132Z,16.40
2017-10-19T20:25:25.611Z,16.30
2017-10-19T20:27:53.874Z,16.10
2017-10-19T20:30:21.367Z,16.10
2017-10-19T20:32:48.830Z,16.00
2017-10-19T20:35:16.295Z,16.00
2017-10-19T20:37:43.771Z,15.90
2017-10-19T20:40:11.256Z,15.90
2017-10-19T20:42:39.492Z,16.00
2017-10-19T20:45:06.974Z,15.90
2017-10-19T20:47:34.455Z,15.90
2017-10-19T20:50:01.932Z,15.90
2017-10-19T20:52:29.391Z,15.90
2017-10-19T20:54:56.867Z,15.90
2017-10-19T20:57:24.331Z,15.80
2017-10-19T20:59:51.819Z,15.80
2017-10-19T21:02:19.330Z,15.70
2017-10-19T21:04:46.791Z,15.70
2017-10-19T21:07:14.272Z,15.70
2017-10-19T21:09:41.748Z,15.70
2017-10-19T21:12:09.217Z,15.60
2017-10-19T21:14:36.712Z,15.60
2017-10-19T21:17:04.209Z,15.50
2017-10-19T21:19:31.687Z,15.50
2017-10-19T21:21:59.159Z,15.50
2017-10-19T21:24:27.387Z,15.40
2017-10-19T21:26:54.864Z,15.40
2017-10-19T21:29:22.332Z,15.50
2017-10-19T21:31:49.817Z,15.40
2017-10-19T21:34:17.285Z,15.40
2017-10-19T21:36:44.756Z,15.30
2017-10-19T21:39:12.235Z,15.30
2017-10-19T21:41:39.698Z,15.20
2017-10-19T21:44:07.203Z,15.20
2017-10-19T21:46:34.655Z,15.20
2017-10-19T21:49:02.137Z,15.10
2017-10-19T21:51:29.619Z,15.10
2017-10-19T21:53:57.096Z,15.10
2017-10-19T21:56:24.551Z,15.10
2017-10-19T21:58:52.026Z,15.10
2017-10-19T22:01:20.283Z,15.00
2017-10-19T22:03:49.282Z,15.00
2017-10-19T22:06:16.735Z,15.00
2017-10-19T22:08:44.236Z,15.00
2017-10-19T22:11:11.696Z,15.00
2017-10-19T22:13:39.174Z,15.10
2017-10-19T22:16:06.650Z,15.10
2017-10-19T22:18:34.142Z,15.20
2017-10-19T22:21:01.639Z,15.30
2017-10-19T22:23:29.121Z,15.50
2017-10-19T22:25:56.575Z,15.70
2017-10-19T22:28:24.055Z,15.80
2017-10-19T22:30:52.291Z,15.80
2017-10-19T22:33:19.751Z,15.80
2017-10-19T22:35:47.247Z,15.80
2017-10-19T22:38:15.487Z,15.70
2017-10-19T22:40:42.973Z,15.70
2017-10-19T22:43:11.215Z,15.90
2017-10-19T22:45:38.672Z,15.90
2017-10-19T22:48:06.165Z,15.90
2017-10-19T22:50:34.390Z,16.20
2017-10-19T22:53:01.875Z,16.10
2017-10-19T22:55:29.347Z,16.10
2017-10-19T22:57:57.583Z,16.30
2017-10-19T23:00:25.055Z,16.20
2017-10-19T23:02:52.551Z,16.40
2017-10-19T23:05:20.036Z,16.40
2017-10-19T23:07:47.532Z,16.50
2017-10-19T23:10:14.993Z,16.50
2017-10-19T23:12:42.479Z,16.50
2017-10-19T23:15:09.943Z,16.50
2017-10-19T23:17:37.408Z,16.60
2017-10-19T23:20:04.894Z,16.50
2017-10-19T23:22:32.356Z,16.50
2017-10-19T23:24:59.840Z,16.50
2017-10-19T23:27:28.079Z,16.60
2017-10-19T23:29:55.563Z,16.50
2017-10-19T23:32:23.033Z,16.60
2017-10-19T23:34:51.251Z,16.60
2017-10-19T23:37:18.731Z,16.60
2017-10-19T23:39:46.195Z,16.40
2017-10-19T23:42:13.655Z,16.30
2017-10-19T23:44:41.151Z,16.30
2017-10-19T23:47:08.612Z,16.40
2017-10-19T23:49:36.087Z,16.30
2017-10-19T23:52:03.543Z,16.20
2017-10-19T23:54:31.027Z,16.00
2017-10-19T23:56:58.502Z,15.80
2017-10-19T23:59:25.951Z,15.70
